createdAt,value
2018-12-04T00:00:03.734Z,0.70
2018-12-04T00:02:32.145Z,0.60
2018-12-04T00:05:00.570Z,0.60
2018-12-04T00:07:28.969Z,0.60
2018-12-04T00:09:57.376Z,0.57
2018-12-04T00:12:25.802Z,0.60
2018-12-04T00:14:56.962Z,0.70
2018-12-04T00:17:25.393Z,0.50
2018-12-04T00:20:00.508Z,0.50
2018-12-04T00:22:28.952Z,0.60
2018-12-04T00:24:57.362Z,0.90
2018-12-04T00:27:25.842Z,0.80
2018-12-04T00:29:54.296Z,0.50
2018-12-04T00:32:31.076Z,0.50
2018-12-04T00:34:59.481Z,0.60
2018-12-04T00:37:27.939Z,0.80
2018-12-04T00:39:56.337Z,0.50
2018-12-04T00:42:24.728Z,0.80
2018-12-04T00:44:53.111Z,0.63
2018-12-04T00:47:21.585Z,0.80
2018-12-04T00:49:50.101Z,0.80
2018-12-04T00:52:18.551Z,0.93
2018-12-04T00:54:46.981Z,0.90
2018-12-04T00:57:15.366Z,1.17
2018-12-04T00:59:43.768Z,1.20
2018-12-04T01:02:12.133Z,1.10
2018-12-04T01:04:40.531Z,1.07
2018-12-04T01:07:08.901Z,0.97
2018-12-04T01:09:37.403Z,1.30
2018-12-04T01:12:05.921Z,1.43
2018-12-04T01:14:34.353Z,1.10
2018-12-04T01:17:02.771Z,1.30
2018-12-04T01:19:31.170Z,1.20
2018-12-04T01:21:59.588Z,1.30
2018-12-04T01:24:28.058Z,1.27
2018-12-04T01:26:56.557Z,1.33
2018-12-04T01:29:25.006Z,1.37
2018-12-04T01:31:53.422Z,1.33
2018-12-04T01:34:21.815Z,1.40
2018-12-04T01:36:50.385Z,1.70
2018-12-04T01:39:18.817Z,1.50
2018-12-04T01:41:47.297Z,1.70
2018-12-04T01:44:15.810Z,1.70
2018-12-04T01:46:44.184Z,1.40
2018-12-04T01:49:12.590Z,1.20
2018-12-04T01:51:40.947Z,1.27
2018-12-04T01:54:09.605Z,1.13
2018-12-04T01:56:38.204Z,1.10
2018-12-04T01:59:06.581Z,1.63
2018-12-04T02:01:35.153Z,1.50
2018-12-04T02:04:05.869Z,2.20
2018-12-04T02:06:35.448Z,1.90
2018-12-04T02:09:05.177Z,1.63
2018-12-04T02:11:33.825Z,1.50
2018-12-04T02:14:02.289Z,1.47
2018-12-04T02:16:30.685Z,1.80
2018-12-04T02:18:59.078Z,1.50
2018-12-04T02:21:27.495Z,1.50
2018-12-04T02:23:55.914Z,1.40
2018-12-04T02:26:24.369Z,1.40
2018-12-04T02:28:52.771Z,1.57
2018-12-04T02:31:21.188Z,1.50
2018-12-04T02:33:49.579Z,1.20
2018-12-04T02:36:17.971Z,1.40
2018-12-04T02:38:46.347Z,1.47
2018-12-04T02:41:14.740Z,1.20
2018-12-04T02:43:43.147Z,1.10
2018-12-04T02:46:11.545Z,1.20
2018-12-04T02:48:40.029Z,1.33
2018-12-04T02:51:08.435Z,1.63
2018-12-04T02:53:36.897Z,1.50
2018-12-04T02:56:05.331Z,1.40
2018-12-04T02:58:33.871Z,1.20
2018-12-04T03:01:02.339Z,1.20
2018-12-04T03:03:30.966Z,1.70
2018-12-04T03:05:59.483Z,1.40
2018-12-04T03:08:27.881Z,1.30
2018-12-04T03:10:56.320Z,1.20
2018-12-04T03:13:24.702Z,1.23
2018-12-04T03:15:53.237Z,1.00
2018-12-04T03:18:21.602Z,1.00
2018-12-04T03:20:50.000Z,1.10
2018-12-04T03:23:18.418Z,1.23
2018-12-04T03:25:46.837Z,1.20
2018-12-04T03:28:15.402Z,1.13
2018-12-04T03:30:43.855Z,1.03
2018-12-04T03:33:18.829Z,1.10
2018-12-04T03:35:47.412Z,1.20
2018-12-04T03:38:15.880Z,1.30
2018-12-04T03:40:44.347Z,1.20
2018-12-04T03:43:12.832Z,1.27
2018-12-04T03:45:41.236Z,1.40
2018-12-04T03:48:09.629Z,1.53
2018-12-04T03:50:38.024Z,1.00
2018-12-04T03:53:06.406Z,1.40
2018-12-04T03:55:34.815Z,1.60
2018-12-04T03:58:03.315Z,1.57
2018-12-04T04:00:32.158Z,1.30
2018-12-04T04:03:00.556Z,1.90
2018-12-04T04:05:28.964Z,1.40
2018-12-04T04:07:57.382Z,1.10
2018-12-04T04:10:25.820Z,1.30
2018-12-04T04:12:54.356Z,1.27
2018-12-04T04:15:22.789Z,1.30
2018-12-04T04:17:51.454Z,1.37
2018-12-04T04:20:20.550Z,1.20
2018-12-04T04:22:49.845Z,1.47
2018-12-04T04:25:18.548Z,1.20
2018-12-04T04:27:48.290Z,1.47
2018-12-04T04:30:16.834Z,1.33
2018-12-04T04:32:45.239Z,1.07
2018-12-04T04:35:14.336Z,1.13
2018-12-04T04:37:42.786Z,1.57
2018-12-04T04:40:11.217Z,1.40
2018-12-04T04:42:39.851Z,1.90
2018-12-04T04:45:08.404Z,1.30
2018-12-04T04:47:36.841Z,1.90
2018-12-04T04:50:06.429Z,1.60
2018-12-04T04:52:34.795Z,1.50
2018-12-04T04:55:04.862Z,1.03
2018-12-04T04:57:33.297Z,1.37
2018-12-04T05:00:03.820Z,1.20
2018-12-04T05:02:32.283Z,1.20
2018-12-04T05:05:03.527Z,1.00
2018-12-04T05:07:32.111Z,1.20
2018-12-04T05:10:01.841Z,1.43
2018-12-04T05:12:31.058Z,1.63
2018-12-04T05:14:59.447Z,1.40
2018-12-04T05:17:27.907Z,1.60
2018-12-04T05:19:56.576Z,1.50
2018-12-04T05:22:24.987Z,1.37
2018-12-04T05:24:53.395Z,5.23
2018-12-04T05:27:22.165Z,1.53
2018-12-04T05:29:51.745Z,1.80
2018-12-04T05:32:20.214Z,1.40
2018-12-04T05:34:48.617Z,1.27
2018-12-04T05:37:17.127Z,1.30
2018-12-04T05:39:45.627Z,1.20
2018-12-04T05:42:14.037Z,1.67
2018-12-04T05:44:42.515Z,1.60
2018-12-04T05:47:10.923Z,1.17
2018-12-04T05:49:39.409Z,1.53
2018-12-04T05:52:07.948Z,1.37
2018-12-04T05:54:36.459Z,1.30
2018-12-04T05:57:04.914Z,1.37
2018-12-04T05:59:33.350Z,1.20
2018-12-04T06:02:01.753Z,1.53
2018-12-04T06:04:30.432Z,1.17
2018-12-04T06:06:58.923Z,1.70
2018-12-04T06:09:27.360Z,1.60
2018-12-04T06:11:55.968Z,1.47
2018-12-04T06:14:24.716Z,1.43
2018-12-04T06:16:53.208Z,1.57
2018-12-04T06:19:21.666Z,1.50
2018-12-04T06:21:50.083Z,1.47
2018-12-04T06:24:18.526Z,1.60
2018-12-04T06:26:47.049Z,1.40
2018-12-04T06:29:15.546Z,1.70
2018-12-04T06:31:43.998Z,1.57
2018-12-04T06:34:12.382Z,1.43
2018-12-04T06:36:40.829Z,1.50
2018-12-04T06:39:09.864Z,1.50
2018-12-04T06:41:38.282Z,1.57
2018-12-04T06:44:06.845Z,1.30
2018-12-04T06:46:35.349Z,1.70
2018-12-04T06:49:03.982Z,1.73
2018-12-04T06:51:32.449Z,1.20
2018-12-04T06:54:00.851Z,1.87
2018-12-04T06:56:29.250Z,2.13
2018-12-04T06:58:57.696Z,1.60
2018-12-04T07:01:26.154Z,1.60
2018-12-04T07:03:54.657Z,1.33
2018-12-04T07:06:23.287Z,1.57
2018-12-04T07:08:51.837Z,1.80
2018-12-04T07:11:20.523Z,1.40
2018-12-04T07:13:49.920Z,1.83
2018-12-04T07:16:18.393Z,1.90
2018-12-04T07:18:46.916Z,2.00
2018-12-04T07:21:15.364Z,1.63
2018-12-04T07:23:43.785Z,1.77
2018-12-04T07:26:12.236Z,1.83
2018-12-04T07:28:40.651Z,1.53
2018-12-04T07:31:09.228Z,1.77
2018-12-04T07:33:37.638Z,1.50
2018-12-04T07:36:06.053Z,1.73
2018-12-04T07:38:34.530Z,1.50
2018-12-04T07:41:03.010Z,1.73
2018-12-04T07:43:31.424Z,1.60
2018-12-04T07:45:59.859Z,2.23
2018-12-04T07:48:28.328Z,1.60
2018-12-04T07:50:56.914Z,1.40
2018-12-04T07:53:25.412Z,1.60
2018-12-04T07:55:53.852Z,1.63
2018-12-04T07:58:22.379Z,1.87
2018-12-04T08:00:50.922Z,1.67
2018-12-04T08:03:19.354Z,1.53
2018-12-04T08:05:47.869Z,1.40
2018-12-04T08:08:16.284Z,1.80
2018-12-04T08:10:47.684Z,1.50
2018-12-04T08:13:16.150Z,1.80
2018-12-04T08:15:44.579Z,2.03
2018-12-04T08:18:13.028Z,1.90
2018-12-04T08:20:41.557Z,2.23
2018-12-04T08:23:09.937Z,1.87
2018-12-04T08:25:38.360Z,2.00
2018-12-04T08:28:06.853Z,2.00
2018-12-04T08:30:35.427Z,2.20
2018-12-04T08:33:03.907Z,1.90
2018-12-04T08:35:32.884Z,1.40
2018-12-04T08:38:01.339Z,1.57
2018-12-04T08:40:29.817Z,1.90
2018-12-04T08:42:58.303Z,1.40
2018-12-04T08:45:26.815Z,1.43
2018-12-04T08:47:55.221Z,1.40
2018-12-04T08:50:23.681Z,1.43
2018-12-04T08:52:52.113Z,1.40
2018-12-04T08:55:20.635Z,1.40
2018-12-04T08:57:49.073Z,1.30
2018-12-04T09:00:17.492Z,1.40
2018-12-04T09:02:45.871Z,1.27
2018-12-04T09:05:14.358Z,1.30
2018-12-04T09:07:42.990Z,1.70
2018-12-04T09:10:12.435Z,1.47
2018-12-04T09:12:41.071Z,1.30
2018-12-04T09:15:09.507Z,1.70
2018-12-04T09:17:37.937Z,1.60
2018-12-04T09:20:07.740Z,1.50
2018-12-04T09:22:36.398Z,1.43
2018-12-04T09:25:05.304Z,1.40
2018-12-04T09:27:33.852Z,1.77
2018-12-04T09:30:02.497Z,1.53
2018-12-04T09:32:31.047Z,1.70
2018-12-04T09:34:59.503Z,1.80
2018-12-04T09:37:28.004Z,1.40
2018-12-04T09:39:56.412Z,1.47
2018-12-04T09:42:24.810Z,1.50
2018-12-04T09:44:53.213Z,1.40
2018-12-04T09:47:21.655Z,1.60
2018-12-04T09:49:50.129Z,1.50
2018-12-04T09:52:18.535Z,1.60
2018-12-04T09:54:47.038Z,1.70
2018-12-04T09:57:15.492Z,1.57
2018-12-04T09:59:43.963Z,1.57
2018-12-04T10:02:12.353Z,1.57
2018-12-04T10:04:40.832Z,1.67
2018-12-04T10:07:09.226Z,1.60
2018-12-04T10:09:37.841Z,1.60
2018-12-04T10:12:06.371Z,1.77
2018-12-04T10:14:34.831Z,1.90
2018-12-04T10:17:03.443Z,1.80
2018-12-04T10:19:32.029Z,1.53
2018-12-04T10:22:00.457Z,1.80
2018-12-04T10:24:28.861Z,2.00
2018-12-04T10:26:58.210Z,1.60
2018-12-04T10:29:26.922Z,1.77
2018-12-04T10:31:56.123Z,1.67
2018-12-04T10:34:24.964Z,1.60
2018-12-04T10:36:53.627Z,2.90
2018-12-04T10:39:22.073Z,1.80
2018-12-04T10:41:50.575Z,1.70
2018-12-04T10:44:19.022Z,1.50
2018-12-04T10:46:47.592Z,1.20
2018-12-04T10:49:16.017Z,1.73
2018-12-04T10:51:44.490Z,1.27
2018-12-04T10:54:12.908Z,1.27
2018-12-04T10:56:41.352Z,1.00
2018-12-04T10:59:09.771Z,1.20
2018-12-04T11:01:43.795Z,1.20
2018-12-04T11:04:12.294Z,1.00
2018-12-04T11:06:43.138Z,1.23
2018-12-04T11:09:11.594Z,1.50
2018-12-04T11:11:40.062Z,1.23
2018-12-04T11:14:08.496Z,1.10
2018-12-04T11:16:37.014Z,1.50
2018-12-04T11:19:05.492Z,1.70
2018-12-04T11:21:33.879Z,1.43
2018-12-04T11:24:02.309Z,1.20
2018-12-04T11:26:30.750Z,1.20
2018-12-04T11:28:59.156Z,1.53
2018-12-04T11:31:27.589Z,1.80
2018-12-04T11:33:55.998Z,1.60
2018-12-04T11:36:24.557Z,1.60
2018-12-04T11:38:53.053Z,1.53
2018-12-04T11:41:21.490Z,1.60
2018-12-04T11:43:49.882Z,1.50
2018-12-04T11:46:18.251Z,1.80
2018-12-04T11:48:46.654Z,2.03
2018-12-04T11:51:15.092Z,1.80
2018-12-04T11:53:43.495Z,1.40
2018-12-04T11:56:11.901Z,1.70
2018-12-04T11:58:40.395Z,1.63
2018-12-04T12:01:10.950Z,1.70
2018-12-04T12:03:39.729Z,1.80
2018-12-04T12:06:08.151Z,1.30
2018-12-04T12:08:36.642Z,1.77
2018-12-04T12:11:05.129Z,1.70
2018-12-04T12:13:33.551Z,1.73
2018-12-04T12:16:01.991Z,1.30
2018-12-04T12:18:30.411Z,1.30
2018-12-04T12:20:58.841Z,1.50
2018-12-04T12:23:27.281Z,1.60
2018-12-04T12:25:55.698Z,1.30
2018-12-04T12:28:24.186Z,1.73
2018-12-04T12:30:52.600Z,2.00
2018-12-04T12:33:20.984Z,1.60
2018-12-04T12:35:49.493Z,1.30
2018-12-04T12:38:18.390Z,1.23
2018-12-04T12:40:46.803Z,1.23
2018-12-04T12:43:15.233Z,1.60
2018-12-04T12:45:43.686Z,1.07
2018-12-04T12:48:12.180Z,0.93
2018-12-04T12:50:40.552Z,1.03
2018-12-04T12:53:09.000Z,1.00
2018-12-04T12:55:37.389Z,1.47
2018-12-04T12:58:05.812Z,1.17
2018-12-04T13:00:34.248Z,1.40
2018-12-04T13:03:02.665Z,1.87
2018-12-04T13:05:31.062Z,1.70
2018-12-04T13:07:59.482Z,1.73
2018-12-04T13:10:27.897Z,1.77
2018-12-04T13:12:56.299Z,2.10
2018-12-04T13:15:24.807Z,1.87
2018-12-04T13:17:53.276Z,2.00
2018-12-04T13:20:21.728Z,2.10
2018-12-04T13:22:50.153Z,1.70
2018-12-04T13:25:18.642Z,1.70
2018-12-04T13:27:47.118Z,1.90
2018-12-04T13:30:15.800Z,1.67
2018-12-04T13:32:44.291Z,1.63
2018-12-04T13:35:12.747Z,1.80
2018-12-04T13:37:41.255Z,1.63
2018-12-04T13:40:09.818Z,2.00
2018-12-04T13:42:38.159Z,2.40
2018-12-04T13:45:07.341Z,2.00
2018-12-04T13:47:35.763Z,2.33
2018-12-04T13:50:04.687Z,1.70
2018-12-04T13:52:33.075Z,2.40
2018-12-04T13:55:01.533Z,1.87
2018-12-04T13:57:30.108Z,1.87
2018-12-04T13:59:58.515Z,2.00
2018-12-04T14:02:27.050Z,1.93
2018-12-04T14:04:55.630Z,1.97
2018-12-04T14:07:24.260Z,2.10
2018-12-04T14:09:52.724Z,1.83
2018-12-04T14:12:21.251Z,1.97
2018-12-04T14:14:49.780Z,1.87
2018-12-04T14:17:18.311Z,2.17
2018-12-04T14:19:46.904Z,2.23
2018-12-04T14:22:16.303Z,1.80
2018-12-04T14:24:45.042Z,2.00
2018-12-04T14:27:13.629Z,1.80
2018-12-04T14:29:42.058Z,1.90
2018-12-04T14:32:10.497Z,1.83
2018-12-04T14:34:38.970Z,2.03
2018-12-04T14:37:07.451Z,1.93
2018-12-04T14:39:35.999Z,2.20
2018-12-04T14:42:04.673Z,2.40
2018-12-04T14:44:33.245Z,2.00
2018-12-04T14:47:01.912Z,2.27
2018-12-04T14:49:30.412Z,2.10
2018-12-04T14:51:58.903Z,2.30
2018-12-04T14:54:27.369Z,2.43
2018-12-04T14:56:56.033Z,2.40
2018-12-04T14:59:24.520Z,2.63
2018-12-04T15:01:53.015Z,2.70
2018-12-04T15:04:21.614Z,2.73
2018-12-04T15:06:50.111Z,2.10
2018-12-04T15:09:18.542Z,2.63
2018-12-04T15:11:46.946Z,2.97
2018-12-04T15:14:15.418Z,2.30
2018-12-04T15:16:44.060Z,2.90
2018-12-04T15:19:12.573Z,3.10
2018-12-04T15:21:41.323Z,3.10
2018-12-04T15:24:09.885Z,3.20
2018-12-04T15:26:39.193Z,3.40
2018-12-04T15:29:07.921Z,3.70
2018-12-04T15:31:36.415Z,3.67
2018-12-04T15:34:05.171Z,3.80
2018-12-04T15:36:33.626Z,17.90
2018-12-04T15:39:02.187Z,2.90
2018-12-04T15:41:30.787Z,2.07
2018-12-04T15:43:59.331Z,2.60
2018-12-04T15:46:27.811Z,2.40
2018-12-04T15:48:56.260Z,2.50
2018-12-04T15:51:24.735Z,2.53
2018-12-04T15:53:53.325Z,2.40
2018-12-04T15:56:21.879Z,2.70
2018-12-04T15:58:50.332Z,2.90
2018-12-04T16:01:18.827Z,2.67
2018-12-04T16:03:47.458Z,3.10
2018-12-04T16:06:15.925Z,3.00
2018-12-04T16:08:44.396Z,3.27
2018-12-04T16:11:12.859Z,3.40
2018-12-04T16:13:41.284Z,3.60
2018-12-04T16:16:09.733Z,3.53
2018-12-04T16:18:38.140Z,3.77
2018-12-04T16:21:06.604Z,4.00
2018-12-04T16:23:34.997Z,4.13
2018-12-04T16:26:03.417Z,4.60
2018-12-04T16:28:31.948Z,4.10
2018-12-04T16:31:00.391Z,5.67
2018-12-04T16:33:28.863Z,4.43
2018-12-04T16:35:57.263Z,5.47
2018-12-04T16:38:25.783Z,3.43
2018-12-04T16:40:54.408Z,3.17
2018-12-04T16:43:22.993Z,4.53
2018-12-04T16:45:51.460Z,6.43
2018-12-04T16:48:20.015Z,4.00
2018-12-04T16:50:48.508Z,4.13
2018-12-04T16:53:16.979Z,4.00
2018-12-04T16:55:45.414Z,4.17
2018-12-04T16:58:13.892Z,5.67
2018-12-04T17:00:42.478Z,5.03
2018-12-04T17:03:10.970Z,5.20
2018-12-04T17:05:39.405Z,5.03
2018-12-04T17:08:07.930Z,4.83
2018-12-04T17:10:36.341Z,5.70
2018-12-04T17:13:04.717Z,4.50
2018-12-04T17:15:33.392Z,4.40
2018-12-04T17:18:01.878Z,3.90
2018-12-04T17:20:30.349Z,4.07
2018-12-04T17:22:58.810Z,4.00
2018-12-04T17:25:27.431Z,11.33
2018-12-04T17:27:55.917Z,4.57
2018-12-04T17:30:24.301Z,4.80
2018-12-04T17:32:52.985Z,4.17
2018-12-04T17:35:21.592Z,4.37
2018-12-04T17:37:50.285Z,4.53
2018-12-04T17:40:18.810Z,4.33
2018-12-04T17:42:47.332Z,4.07
2018-12-04T17:45:15.713Z,4.83
2018-12-04T17:47:44.186Z,3.90
2018-12-04T17:50:12.634Z,4.47
2018-12-04T17:52:41.178Z,4.50
2018-12-04T17:55:09.751Z,4.57
2018-12-04T17:57:38.292Z,4.10
2018-12-04T18:00:08.106Z,3.77
2018-12-04T18:02:36.565Z,4.70
2018-12-04T18:05:05.258Z,4.93
2018-12-04T18:07:33.845Z,4.77
2018-12-04T18:10:02.264Z,4.63
2018-12-04T18:12:30.703Z,5.30
2018-12-04T18:14:59.258Z,4.97
2018-12-04T18:17:27.684Z,4.70
2018-12-04T18:19:56.336Z,5.03
2018-12-04T18:22:24.924Z,5.50
2018-12-04T18:24:53.448Z,6.37
2018-12-04T18:27:21.856Z,4.83
2018-12-04T18:29:50.346Z,4.70
2018-12-04T18:32:18.760Z,4.87
2018-12-04T18:34:47.216Z,5.60
2018-12-04T18:37:15.900Z,4.87
2018-12-04T18:39:44.635Z,5.43
2018-12-04T18:42:13.447Z,5.07
2018-12-04T18:44:41.987Z,5.93
2018-12-04T18:47:10.466Z,5.77
2018-12-04T18:49:38.922Z,6.93
2018-12-04T18:52:07.478Z,17.33
2018-12-04T18:54:36.106Z,6.07
2018-12-04T18:57:04.603Z,25.37
2018-12-04T18:59:33.170Z,54.60
2018-12-04T19:02:01.727Z,64.17
2018-12-04T19:04:30.408Z,9.80
2018-12-04T19:06:58.864Z,63.57
2018-12-04T19:09:27.340Z,49.60
2018-12-04T19:11:55.904Z,25.53
2018-12-04T19:14:24.383Z,75.07
2018-12-04T19:16:54.450Z,15.37
2018-12-04T19:19:23.136Z,5.70
2018-12-04T19:21:51.548Z,4.60
2018-12-04T19:24:20.084Z,5.00
2018-12-04T19:26:48.842Z,4.83
2018-12-04T19:29:17.293Z,5.17
2018-12-04T19:31:45.755Z,15.27
2018-12-04T19:34:14.314Z,8.53
2018-12-04T19:36:42.869Z,7.47
2018-12-04T19:39:11.309Z,5.33
2018-12-04T19:41:39.854Z,17.97
2018-12-04T19:44:08.418Z,5.67
2018-12-04T19:46:37.036Z,5.77
2018-12-04T19:49:05.728Z,6.13
2018-12-04T19:51:34.164Z,6.57
2018-12-04T19:54:02.680Z,5.80
2018-12-04T19:56:31.371Z,7.10
2018-12-04T19:58:59.922Z,6.90
2018-12-04T20:01:28.368Z,6.87
2018-12-04T20:03:56.900Z,6.87
2018-12-04T20:06:25.536Z,7.03
2018-12-04T20:08:57.467Z,6.87
2018-12-04T20:11:26.093Z,5.87
2018-12-04T20:13:54.603Z,6.80
2018-12-04T20:16:23.167Z,5.63
2018-12-04T20:18:51.642Z,6.17
2018-12-04T20:21:20.414Z,5.83
2018-12-04T20:23:48.890Z,5.83
2018-12-04T20:26:17.405Z,6.30
2018-12-04T20:28:45.840Z,5.93
2018-12-04T20:31:14.304Z,6.40
2018-12-04T20:33:42.688Z,6.90
2018-12-04T20:36:11.172Z,7.00
2018-12-04T20:38:40.323Z,6.10
2018-12-04T20:41:08.887Z,7.00
2018-12-04T20:43:37.283Z,7.67
2018-12-04T20:46:06.218Z,7.50
2018-12-04T20:48:34.790Z,7.07
2018-12-04T20:51:03.522Z,7.10
2018-12-04T20:53:32.022Z,7.80
2018-12-04T20:56:00.444Z,7.37
2018-12-04T20:58:28.965Z,7.17
2018-12-04T21:00:57.464Z,7.53
2018-12-04T21:03:25.946Z,8.40
2018-12-04T21:05:54.394Z,7.67
2018-12-04T21:08:22.836Z,7.10
2018-12-04T21:10:51.262Z,7.37
2018-12-04T21:13:19.698Z,7.57
2018-12-04T21:15:48.168Z,7.73
2018-12-04T21:18:16.657Z,8.47
2018-12-04T21:20:45.067Z,8.53
2018-12-04T21:23:13.512Z,8.17
2018-12-04T21:25:42.096Z,8.83
2018-12-04T21:28:15.836Z,9.50
2018-12-04T21:30:49.598Z,10.67
2018-12-04T21:33:23.317Z,11.07
2018-12-04T21:35:57.019Z,11.13
2018-12-04T21:38:30.636Z,11.00
2018-12-04T21:41:02.795Z,11.53
2018-12-04T21:43:36.618Z,12.10
2018-12-04T21:46:10.502Z,18.13
2018-12-04T21:48:39.010Z,12.43
2018-12-04T21:51:07.434Z,13.47
2018-12-04T21:53:35.928Z,17.00
2018-12-04T21:56:04.623Z,18.60
2018-12-04T21:58:33.018Z,17.00
2018-12-04T22:01:01.442Z,15.60
2018-12-04T22:03:29.900Z,14.73
2018-12-04T22:05:58.369Z,16.20
2018-12-04T22:08:26.823Z,16.27
2018-12-04T22:10:55.294Z,16.30
2018-12-04T22:13:23.704Z,17.40
2018-12-04T22:15:52.134Z,17.60
2018-12-04T22:18:20.623Z,16.07
2018-12-04T22:20:49.151Z,17.43
2018-12-04T22:23:17.589Z,16.17
2018-12-04T22:25:46.058Z,14.93
2018-12-04T22:28:14.483Z,14.67
2018-12-04T22:30:42.984Z,14.97
2018-12-04T22:33:11.381Z,16.60
2018-12-04T22:35:40.724Z,16.30
2018-12-04T22:38:09.165Z,16.47
2018-12-04T22:40:37.613Z,17.10
2018-12-04T22:43:06.127Z,15.83
2018-12-04T22:45:34.526Z,17.17
2018-12-04T22:48:03.025Z,17.63
2018-12-04T22:50:31.435Z,19.07
2018-12-04T22:52:59.842Z,18.23
2018-12-04T22:55:28.256Z,18.30
2018-12-04T22:57:56.790Z,17.27
2018-12-04T23:00:36.389Z,16.80
2018-12-04T23:03:04.806Z,18.20
2018-12-04T23:05:33.237Z,18.60
2018-12-04T23:08:01.911Z,20.93
2018-12-04T23:10:30.362Z,18.67
2018-12-04T23:12:59.068Z,19.13
2018-12-04T23:15:28.505Z,19.00
2018-12-04T23:17:57.152Z,18.80
2018-12-04T23:20:25.860Z,17.77
2018-12-04T23:22:54.511Z,19.53
2018-12-04T23:25:22.886Z,19.40
2018-12-04T23:27:51.276Z,21.17
2018-12-04T23:30:19.706Z,22.20
2018-12-04T23:32:48.085Z,23.17
2018-12-04T23:35:17.880Z,19.50
2018-12-04T23:37:46.270Z,19.50
2018-12-04T23:40:15.044Z,19.80
2018-12-04T23:42:43.844Z,18.60
2018-12-04T23:45:12.350Z,20.43
2018-12-04T23:47:40.923Z,20.00
2018-12-04T23:50:09.350Z,20.23
2018-12-04T23:52:37.876Z,20.87
2018-12-04T23:55:06.672Z,20.73
2018-12-04T23:57:35.505Z,19.97
